Terminal Aerodrome Forecast
Issued by NWS Sioux Falls, SD

Home | Current Version | Previous Version | Graphics & Text | Print | Product List | Glossary On
Versions: 1 2 3 4 5 6 7 8 9 10 11 12 13 14 15
311
FTUS43 KFSD 222325 AAC
TAFFSD
TAF AMD
KFSD 222325Z 2223/2324 31007KT P6SM OVC006
     FM231300 00000KT 3SM BR OVC003
     FM231600 20004KT 5SM BR OVC015
     FM231800 16005KT P6SM BKN060=

USA.gov is the U.S. government's official web portal to all federal, state and local government web resources and services.